createdAt,value
2023-02-09T00:02:25.372Z,99.90
2023-02-09T00:04:52.797Z,99.90
2023-02-09T00:07:19.779Z,99.90
2023-02-09T00:09:53.629Z,99.90
2023-02-09T00:12:44.049Z,99.90
2023-02-09T00:15:11.480Z,99.90
2023-02-09T00:17:38.325Z,99.90
2023-02-09T00:20:08.905Z,99.90
2023-02-09T00:22:37.990Z,99.90
2023-02-09T00:25:05.235Z,99.90
2023-02-09T00:27:35.532Z,99.90
2023-02-09T00:30:04.787Z,99.90
2023-02-09T00:32:33.160Z,99.90
2023-02-09T00:35:00.199Z,99.90
2023-02-09T00:37:30.590Z,99.90
2023-02-09T00:39:57.728Z,99.90
2023-02-09T00:42:24.597Z,99.90
2023-02-09T00:44:54.015Z,99.90
2023-02-09T00:47:23.285Z,99.90
2023-02-09T00:49:50.316Z,99.90
2023-02-09T00:52:19.801Z,99.90
2023-02-09T00:54:53.696Z,99.90
2023-02-09T00:57:23.189Z,99.90
2023-02-09T00:59:50.248Z,99.90
2023-02-09T01:02:19.856Z,99.90
2023-02-09T01:04:49.959Z,99.90
2023-02-09T01:07:19.338Z,99.90
2023-02-09T01:09:46.273Z,99.90
2023-02-09T01:12:15.464Z,99.90
2023-02-09T01:14:44.843Z,99.90
2023-02-09T01:17:11.930Z,99.90
2023-02-09T01:19:39.050Z,99.90
2023-02-09T01:22:09.035Z,99.90
2023-02-09T01:24:38.227Z,99.90
2023-02-09T01:27:07.816Z,99.90
2023-02-09T01:29:34.853Z,99.90
2023-02-09T01:32:02.505Z,99.90
2023-02-09T01:34:29.562Z,99.90
2023-02-09T01:36:59.113Z,99.90
2023-02-09T01:39:26.116Z,99.90
2023-02-09T01:41:55.466Z,99.90
2023-02-09T01:44:24.514Z,99.90
2023-02-09T01:46:53.705Z,99.90
2023-02-09T01:49:26.384Z,99.90
2023-02-09T01:51:56.307Z,99.90
2023-02-09T01:54:42.201Z,99.90
2023-02-09T01:57:27.633Z,99.90
2023-02-09T02:00:18.223Z,99.90
2023-02-09T02:02:55.093Z,99.90
2023-02-09T02:05:25.244Z,99.90
2023-02-09T02:08:04.442Z,99.90
2023-02-09T02:10:31.533Z,99.90
2023-02-09T02:13:01.492Z,99.90
2023-02-09T02:15:54.841Z,99.90
2023-02-09T02:18:44.086Z,99.90
2023-02-09T02:21:49.563Z,99.90
2023-02-09T02:24:42.188Z,99.90
2023-02-09T02:27:17.471Z,99.90
2023-02-09T02:30:06.684Z,99.90
2023-02-09T02:32:52.142Z,99.90
2023-02-09T02:35:36.618Z,99.90
2023-02-09T02:38:19.950Z,99.90
2023-02-09T02:41:13.870Z,99.90
2023-02-09T02:43:55.159Z,99.90
2023-02-09T02:46:43.354Z,99.90
2023-02-09T02:49:15.188Z,99.90
2023-02-09T02:51:50.562Z,99.90
2023-02-09T02:54:40.546Z,99.90
2023-02-09T02:57:13.565Z,99.90
2023-02-09T02:59:53.659Z,99.90
2023-02-09T03:02:25.072Z,99.90
2023-02-09T03:04:55.172Z,99.90
2023-02-09T03:07:22.228Z,99.90
2023-02-09T03:09:53.272Z,99.90
2023-02-09T03:12:26.307Z,99.90
2023-02-09T03:21:27.762Z,99.90
2023-02-09T03:24:11.432Z,99.90
2023-02-09T03:26:49.143Z,99.90
2023-02-09T03:29:23.645Z,99.90
2023-02-09T03:31:53.712Z,99.90
2023-02-09T03:34:23.199Z,99.90
2023-02-09T03:36:55.871Z,99.90
2023-02-09T03:39:25.271Z,99.90
2023-02-09T03:41:52.242Z,99.90
2023-02-09T03:44:28.383Z,99.90
2023-02-09T03:46:58.556Z,99.90
2023-02-09T03:49:28.393Z,99.90
2023-02-09T03:51:55.879Z,99.90
2023-02-09T03:54:22.877Z,99.90
2023-02-09T03:56:54.689Z,99.90
2023-02-09T03:59:25.946Z,99.90
2023-02-09T04:01:59.558Z,99.90
2023-02-09T04:04:27.091Z,99.90
2023-02-09T04:06:54.762Z,99.90
2023-02-09T04:09:24.388Z,99.90
2023-02-09T04:11:53.854Z,99.90
2023-02-09T04:14:24.478Z,99.90
2023-02-09T04:16:51.538Z,99.90
2023-02-09T04:19:18.571Z,99.90
2023-02-09T04:21:45.610Z,99.90
2023-02-09T04:24:12.444Z,99.90
2023-02-09T04:26:41.594Z,99.90
2023-02-09T04:29:10.702Z,99.90
2023-02-09T04:31:39.788Z,99.90
2023-02-09T04:34:06.665Z,99.90
2023-02-09T04:36:36.277Z,99.90
2023-02-09T04:39:03.456Z,99.90
2023-02-09T04:41:30.358Z,99.90
2023-02-09T04:44:00.703Z,99.90
2023-02-09T04:46:27.690Z,99.90
2023-02-09T04:48:57.074Z,99.90
2023-02-09T04:51:28.892Z,99.90
2023-02-09T04:53:58.075Z,99.90
2023-02-09T04:56:24.963Z,99.90
2023-02-09T04:59:10.381Z,99.90
2023-02-09T05:01:39.493Z,99.90
2023-02-09T05:04:09.463Z,99.90
2023-02-09T05:06:36.422Z,99.90
2023-02-09T05:09:07.641Z,99.90
2023-02-09T05:11:34.478Z,99.90
2023-02-09T05:14:01.478Z,99.90
2023-02-09T05:16:28.337Z,99.90
2023-02-09T05:18:55.479Z,99.90
2023-02-09T05:21:23.171Z,99.90
2023-02-09T05:23:52.682Z,99.90
2023-02-09T05:26:21.698Z,99.90
2023-02-09T05:28:48.917Z,99.90
2023-02-09T05:31:19.050Z,99.90
2023-02-09T05:33:46.065Z,99.90
2023-02-09T05:36:13.034Z,99.90
2023-02-09T05:38:42.717Z,99.90
2023-02-09T05:41:11.692Z,99.90
2023-02-09T05:43:38.719Z,99.90
2023-02-09T05:46:08.185Z,99.90
2023-02-09T05:48:37.447Z,99.90
2023-02-09T05:51:06.913Z,99.90
2023-02-09T05:53:36.396Z,99.90
2023-02-09T05:56:03.432Z,99.90
2023-02-09T05:58:32.920Z,99.90
2023-02-09T06:00:59.821Z,99.90
2023-02-09T06:03:26.868Z,99.90
2023-02-09T06:05:53.693Z,99.90
2023-02-09T06:08:22.835Z,99.90
2023-02-09T06:10:49.758Z,99.90
2023-02-09T06:13:19.775Z,99.90
2023-02-09T06:15:46.671Z,99.90
2023-02-09T06:18:21.470Z,99.90
2023-02-09T06:20:48.455Z,99.90
2023-02-09T06:23:15.444Z,99.90
2023-02-09T06:25:42.414Z,99.90
2023-02-09T06:28:11.714Z,99.90
2023-02-09T06:30:38.594Z,99.90
2023-02-09T06:33:10.168Z,99.90
2023-02-09T06:35:37.154Z,99.90
2023-02-09T06:38:04.006Z,99.90
2023-02-09T06:40:30.817Z,99.90
2023-02-09T06:43:00.229Z,99.90
2023-02-09T06:45:27.096Z,99.90
2023-02-09T06:47:56.804Z,99.90
2023-02-09T06:50:23.938Z,99.90
2023-02-09T06:52:53.465Z,99.90
2023-02-09T06:55:32.817Z,99.90
2023-02-09T06:58:02.422Z,99.90
2023-02-09T07:00:31.909Z,99.90
2023-02-09T07:03:02.092Z,99.90
2023-02-09T07:05:29.135Z,99.90
2023-02-09T07:07:58.535Z,99.90
2023-02-09T07:10:25.371Z,99.90
2023-02-09T07:12:54.628Z,99.90
2023-02-09T07:15:24.010Z,99.90
2023-02-09T07:17:50.860Z,99.90
2023-02-09T07:20:20.547Z,99.90
2023-02-09T07:22:49.614Z,99.90
2023-02-09T07:25:16.886Z,99.90
2023-02-09T07:27:44.818Z,99.90
2023-02-09T07:39:08.245Z,99.90
2023-02-09T07:41:35.192Z,99.90
2023-02-09T07:44:06.706Z,99.90
2023-02-09T07:46:39.765Z,99.90
2023-02-09T07:49:09.329Z,99.90
2023-02-09T07:51:42.064Z,99.90
2023-02-09T07:54:13.603Z,99.90
2023-02-09T07:56:41.379Z,99.90
2023-02-09T07:59:14.033Z,99.90
2023-02-09T08:01:41.035Z,99.90
2023-02-09T08:04:08.069Z,99.90
2023-02-09T08:06:45.251Z,99.90
2023-02-09T08:09:14.900Z,99.90
2023-02-09T08:12:00.291Z,99.90
2023-02-09T08:14:40.078Z,99.90
2023-02-09T08:17:21.285Z,99.90
2023-02-09T08:20:01.725Z,99.90
2023-02-09T08:22:33.434Z,99.90
2023-02-09T08:25:02.752Z,99.90
2023-02-09T08:27:30.415Z,99.90
2023-02-09T08:30:00.783Z,99.90
2023-02-09T08:32:27.738Z,99.90
2023-02-09T08:34:54.788Z,99.90
2023-02-09T08:37:21.727Z,99.90
2023-02-09T08:39:48.901Z,99.90
2023-02-09T08:42:15.760Z,99.90
2023-02-09T08:45:10.408Z,99.90
2023-02-09T08:47:37.884Z,99.90
2023-02-09T08:50:05.394Z,99.90
2023-02-09T08:52:32.364Z,99.90
2023-02-09T08:54:59.292Z,99.90
2023-02-09T08:57:41.738Z,99.90
2023-02-09T09:00:35.222Z,99.90
2023-02-09T09:03:05.793Z,99.90
2023-02-09T09:05:35.472Z,99.90
2023-02-09T09:08:03.509Z,99.90
2023-02-09T09:10:31.208Z,99.90
2023-02-09T09:12:58.276Z,99.90
2023-02-09T09:15:27.983Z,99.90
2023-02-09T09:17:54.963Z,99.90
2023-02-09T09:20:22.917Z,99.90
2023-02-09T09:22:50.081Z,99.90
2023-02-09T09:25:19.286Z,99.90
2023-02-09T09:27:48.371Z,99.90
2023-02-09T09:30:15.331Z,99.90
2023-02-09T09:32:42.351Z,99.90
2023-02-09T09:35:09.624Z,99.90
2023-02-09T09:37:36.598Z,99.90
2023-02-09T09:40:04.437Z,99.90
2023-02-09T09:42:35.903Z,99.90
2023-02-09T09:45:06.019Z,99.90
2023-02-09T09:47:44.089Z,99.90
2023-02-09T09:50:26.484Z,99.90
2023-02-09T09:53:11.173Z,99.90
2023-02-09T09:55:39.001Z,99.90
2023-02-09T09:58:07.668Z,99.90
2023-02-09T10:00:41.230Z,99.90
2023-02-09T10:03:16.875Z,99.90
2023-02-09T10:05:47.511Z,99.90
2023-02-09T10:08:29.371Z,99.90
2023-02-09T10:11:10.347Z,99.90
2023-02-09T10:13:44.382Z,99.90
2023-02-09T10:16:27.886Z,99.90
2023-02-09T10:19:16.348Z,99.90
2023-02-09T10:21:43.596Z,99.90
2023-02-09T10:24:23.905Z,99.90
2023-02-09T10:27:29.211Z,99.90
2023-02-09T10:30:13.181Z,99.90
2023-02-09T10:32:43.729Z,99.90
2023-02-09T10:35:27.779Z,99.90
2023-02-09T10:38:02.460Z,99.90
2023-02-09T10:40:32.683Z,99.90
2023-02-09T10:43:03.023Z,99.90
2023-02-09T10:45:42.925Z,99.90
2023-02-09T10:48:12.900Z,99.90
2023-02-09T10:51:00.239Z,99.90
2023-02-09T10:53:31.990Z,99.90
2023-02-09T10:56:20.132Z,99.90
2023-02-09T10:59:02.202Z,99.90
2023-02-09T11:01:38.914Z,99.90
2023-02-09T11:04:17.881Z,99.90
2023-02-09T11:06:57.901Z,99.90
2023-02-09T11:09:31.878Z,99.90
2023-02-09T11:12:01.628Z,99.90
2023-02-09T11:14:29.279Z,99.90
2023-02-09T11:17:28.177Z,99.90
2023-02-09T11:20:05.188Z,99.90
2023-02-09T11:22:41.141Z,99.90
2023-02-09T11:25:21.462Z,99.90
2023-02-09T11:28:08.183Z,99.90
2023-02-09T11:30:58.540Z,99.90
2023-02-09T11:33:44.248Z,99.90
2023-02-09T11:36:26.352Z,99.90
2023-02-09T11:39:01.829Z,99.90
2023-02-09T11:41:59.344Z,99.90
2023-02-09T11:44:33.509Z,99.90
2023-02-09T11:47:07.448Z,99.90
2023-02-09T11:49:56.335Z,99.90
2023-02-09T11:52:40.485Z,99.90
2023-02-09T11:55:22.395Z,99.90
2023-02-09T11:57:57.231Z,99.90
2023-02-09T12:00:29.957Z,99.90
2023-02-09T12:03:10.257Z,99.90
2023-02-09T12:05:38.298Z,99.90
2023-02-09T12:08:46.289Z,99.90
2023-02-09T12:11:36.956Z,99.90
2023-02-09T12:14:03.773Z,99.90
2023-02-09T12:16:36.700Z,99.90
2023-02-09T12:19:21.344Z,99.90
2023-02-09T12:21:48.248Z,99.90
2023-02-09T12:24:38.519Z,99.90
2023-02-09T12:27:25.693Z,99.90
2023-02-09T12:29:52.669Z,99.90
2023-02-09T12:32:30.786Z,99.90
2023-02-09T12:35:27.044Z,99.90
2023-02-09T12:38:16.061Z,99.90
2023-02-09T12:40:43.602Z,99.90
2023-02-09T12:43:14.191Z,99.90
2023-02-09T12:45:47.065Z,99.90
2023-02-09T12:48:19.271Z,99.90
2023-02-09T12:50:54.971Z,99.90
2023-02-09T12:53:24.568Z,99.90
2023-02-09T12:56:12.626Z,99.90
2023-02-09T12:58:44.861Z,99.90
2023-02-09T13:01:14.326Z,99.90
2023-02-09T13:03:47.076Z,99.90
2023-02-09T13:06:29.155Z,99.90
2023-02-09T13:09:01.553Z,99.90
2023-02-09T13:11:39.273Z,99.90
2023-02-09T13:14:09.797Z,99.90
2023-02-09T13:17:02.455Z,99.90
2023-02-09T13:20:07.387Z,99.90
2023-02-09T13:22:59.773Z,99.90
2023-02-09T13:25:33.549Z,99.90
2023-02-09T13:28:26.963Z,99.90
2023-02-09T13:30:54.514Z,99.90
2023-02-09T13:33:38.608Z,99.90
2023-02-09T13:36:28.915Z,99.90
2023-02-09T13:39:01.196Z,99.90
2023-02-09T13:41:39.230Z,99.90
2023-02-09T13:44:29.277Z,99.90
2023-02-09T13:46:58.858Z,99.90
2023-02-09T13:49:28.748Z,99.90
2023-02-09T13:52:20.012Z,99.90
2023-02-09T13:54:47.056Z,99.90
2023-02-09T13:57:36.195Z,99.90
2023-02-09T14:00:11.405Z,99.90
2023-02-09T14:03:16.372Z,99.90
2023-02-09T14:06:01.452Z,99.90
2023-02-09T14:08:30.345Z,99.60
2023-02-09T14:11:06.958Z,99.90
2023-02-09T14:13:45.295Z,99.90
2023-02-09T14:16:16.681Z,99.90
2023-02-09T14:18:52.522Z,99.60
2023-02-09T14:21:42.196Z,99.80
2023-02-09T14:24:21.192Z,99.80
2023-02-09T14:27:24.420Z,99.80
2023-02-09T14:29:51.381Z,99.40
2023-02-09T14:32:40.293Z,99.60
2023-02-09T14:35:17.869Z,99.40
2023-02-09T14:37:49.362Z,99.40
2023-02-09T14:40:28.631Z,98.70
2023-02-09T14:43:25.119Z,98.90
2023-02-09T14:46:04.097Z,99.00
2023-02-09T14:48:31.542Z,98.90
2023-02-09T14:51:10.660Z,98.70
2023-02-09T14:53:44.034Z,98.70
2023-02-09T14:56:23.700Z,98.70
2023-02-09T14:58:50.762Z,98.90
2023-02-09T15:01:18.071Z,98.80
2023-02-09T15:03:44.996Z,98.30
2023-02-09T15:06:14.493Z,98.50
2023-02-09T15:08:41.538Z,98.00
2023-02-09T15:11:34.407Z,97.80
2023-02-09T15:14:06.623Z,97.70
2023-02-09T15:16:33.666Z,97.70
2023-02-09T15:19:00.896Z,98.00
2023-02-09T15:21:27.772Z,98.00
2023-02-09T15:23:54.696Z,97.70
2023-02-09T15:26:26.811Z,97.60
2023-02-09T15:28:53.896Z,97.60
2023-02-09T15:31:21.851Z,97.50
2023-02-09T15:33:48.924Z,97.10
2023-02-09T15:36:19.992Z,97.20
2023-02-09T15:38:49.329Z,97.20
2023-02-09T15:41:36.363Z,97.40
2023-02-09T15:44:36.460Z,97.60
2023-02-09T15:47:22.234Z,98.00
2023-02-09T15:49:51.395Z,98.40
2023-02-09T15:52:19.187Z,98.50
2023-02-09T15:54:46.277Z,98.10
2023-02-09T15:57:14.561Z,98.10
2023-02-09T15:59:42.576Z,98.30
2023-02-09T16:02:14.303Z,98.70
2023-02-09T16:04:41.548Z,99.20
2023-02-09T16:07:14.053Z,99.10
2023-02-09T16:09:43.493Z,98.80
2023-02-09T16:12:12.890Z,98.90
2023-02-09T16:14:40.373Z,99.20
2023-02-09T16:17:08.171Z,99.50
2023-02-09T16:19:35.264Z,99.50
2023-02-09T16:22:05.057Z,99.70
2023-02-09T16:24:44.890Z,99.80
2023-02-09T16:27:24.661Z,99.90
2023-02-09T16:29:57.525Z,99.90
2023-02-09T16:32:25.604Z,99.90
2023-02-09T16:34:52.756Z,99.90
2023-02-09T16:37:38.015Z,99.90
2023-02-09T16:40:30.286Z,99.90
2023-02-09T16:42:59.821Z,99.90
2023-02-09T16:45:30.563Z,99.90
2023-02-09T16:47:59.571Z,99.90
2023-02-09T16:50:33.508Z,99.90
2023-02-09T16:53:06.757Z,99.90
2023-02-09T16:55:36.626Z,99.90
2023-02-09T16:58:05.346Z,99.90
2023-02-09T17:00:35.524Z,99.90
2023-02-09T17:03:17.313Z,99.90
2023-02-09T17:05:55.057Z,99.90
2023-02-09T17:08:31.012Z,99.90
2023-02-09T17:10:58.997Z,99.90
2023-02-09T17:13:26.091Z,99.90
2023-02-09T17:16:06.633Z,99.90
2023-02-09T17:18:42.572Z,99.90
2023-02-09T17:21:15.296Z,99.90
2023-02-09T17:23:43.516Z,99.90
2023-02-09T17:26:15.003Z,99.90
2023-02-09T17:28:43.107Z,99.90
2023-02-09T17:31:18.984Z,99.90
2023-02-09T17:33:49.058Z,99.90
2023-02-09T17:36:26.379Z,99.90
2023-02-09T17:39:03.310Z,99.90
2023-02-09T17:41:40.855Z,99.90
2023-02-09T17:44:45.086Z,99.90
2023-02-09T17:47:17.992Z,99.90
2023-02-09T17:49:45.007Z,99.90
2023-02-09T17:52:19.688Z,99.90
2023-02-09T17:54:47.631Z,99.90
2023-02-09T17:57:18.075Z,99.90
2023-02-09T17:59:48.005Z,99.90
2023-02-09T18:02:17.411Z,99.90
2023-02-09T18:04:46.935Z,99.90
2023-02-09T18:07:20.127Z,99.90
2023-02-09T18:09:49.836Z,99.90
2023-02-09T18:12:22.374Z,99.90
2023-02-09T18:14:49.308Z,99.90
2023-02-09T18:17:19.365Z,99.90
2023-02-09T18:19:46.245Z,99.90
2023-02-09T18:22:17.142Z,99.90
2023-02-09T18:24:44.571Z,99.90
2023-02-09T18:27:16.363Z,99.90
2023-02-09T18:29:43.632Z,99.90
2023-02-09T18:32:17.513Z,99.90
2023-02-09T18:34:44.484Z,99.90
2023-02-09T18:37:14.212Z,99.90
2023-02-09T18:39:46.151Z,99.90
2023-02-09T18:42:17.552Z,99.90
2023-02-09T18:44:46.769Z,99.90
2023-02-09T18:47:13.766Z,99.90
2023-02-09T18:49:40.667Z,99.90
2023-02-09T18:52:08.701Z,99.90
2023-02-09T18:54:35.959Z,99.90
2023-02-09T18:57:05.111Z,99.90
2023-02-09T18:59:32.440Z,99.90
2023-02-09T19:02:00.082Z,99.90
2023-02-09T19:04:27.174Z,99.90
2023-02-09T19:06:54.320Z,99.90
2023-02-09T19:09:21.215Z,99.90
2023-02-09T19:11:50.295Z,99.90
2023-02-09T19:14:35.569Z,99.90
2023-02-09T19:17:02.722Z,99.90
2023-02-09T19:19:29.593Z,99.90
2023-02-09T19:21:57.746Z,99.90
2023-02-09T19:24:24.770Z,99.90
2023-02-09T19:26:53.695Z,99.90
2023-02-09T19:29:22.671Z,99.90
2023-02-09T19:31:49.581Z,99.90
2023-02-09T19:34:21.716Z,99.90
2023-02-09T19:36:49.186Z,99.90
2023-02-09T19:39:17.307Z,99.90
2023-02-09T19:41:45.745Z,99.90
2023-02-09T19:44:13.247Z,99.90
2023-02-09T19:46:41.286Z,99.90
2023-02-09T19:49:09.108Z,99.90
2023-02-09T19:51:39.050Z,99.90
2023-02-09T19:54:06.174Z,99.90
2023-02-09T19:56:33.047Z,99.90
2023-02-09T19:59:05.182Z,99.90
2023-02-09T20:01:38.507Z,99.90
2023-02-09T20:04:06.576Z,99.90
2023-02-09T20:09:25.912Z,99.90
2023-02-09T20:11:52.904Z,99.90
2023-02-09T20:14:22.144Z,99.90
2023-02-09T20:16:51.141Z,99.90
2023-02-09T20:19:20.775Z,99.90
2023-02-09T20:21:50.304Z,99.90
2023-02-09T20:24:17.545Z,99.90
2023-02-09T20:26:45.948Z,99.90
2023-02-09T20:29:16.865Z,99.90
2023-02-09T20:34:17.085Z,99.90
2023-02-09T20:36:45.514Z,99.90
2023-02-09T20:39:16.423Z,99.90
2023-02-09T20:42:05.691Z,99.90
2023-02-09T20:44:54.300Z,99.90
2023-02-09T20:47:23.856Z,99.90
2023-02-09T20:49:50.748Z,99.90
2023-02-09T20:52:22.441Z,99.90
2023-02-09T20:54:54.085Z,99.90
2023-02-09T20:57:21.454Z,99.90
2023-02-09T20:59:48.348Z,99.90
2023-02-09T21:02:17.876Z,99.90
2023-02-09T21:04:44.847Z,99.90
2023-02-09T21:07:13.334Z,99.90
2023-02-09T21:09:40.481Z,99.90
2023-02-09T21:12:07.824Z,99.90
2023-02-09T21:14:42.083Z,99.90
2023-02-09T21:17:14.934Z,99.90
2023-02-09T21:19:41.947Z,99.90
2023-02-09T21:22:09.017Z,99.90
2023-02-09T21:24:39.108Z,99.90
2023-02-09T21:27:10.685Z,99.90
2023-02-09T21:29:37.599Z,99.90
2023-02-09T21:32:07.987Z,99.90
2023-02-09T21:34:37.392Z,99.90
2023-02-09T21:37:08.006Z,99.90
2023-02-09T21:39:34.935Z,99.90
2023-02-09T21:42:22.930Z,99.90
2023-02-09T21:44:54.051Z,99.90
2023-02-09T21:47:28.682Z,99.90
2023-02-09T21:49:55.665Z,99.90
2023-02-09T21:52:25.569Z,99.90
2023-02-09T21:54:54.970Z,99.90
2023-02-09T21:57:26.078Z,99.90
2023-02-09T21:59:53.659Z,99.90
2023-02-09T22:02:21.145Z,99.90
2023-02-09T22:04:52.658Z,99.90
2023-02-09T22:07:19.651Z,99.90
2023-02-09T22:09:48.815Z,99.90
2023-02-09T22:12:16.003Z,99.90
2023-02-09T22:14:42.811Z,99.90
2023-02-09T22:17:09.798Z,99.90
2023-02-09T22:19:41.448Z,99.90
2023-02-09T22:22:08.452Z,99.90
2023-02-09T22:24:35.616Z,99.90
2023-02-09T22:27:02.928Z,99.90
2023-02-09T22:29:30.256Z,99.90
2023-02-09T22:31:58.112Z,99.90
2023-02-09T22:34:27.776Z,99.90
2023-02-09T22:36:56.924Z,99.90
2023-02-09T22:39:27.034Z,99.90
2023-02-09T22:41:57.985Z,99.90
2023-02-09T22:44:31.065Z,99.90
2023-02-09T22:46:58.024Z,99.90
2023-02-09T22:49:25.016Z,99.90
2023-02-09T22:51:51.998Z,99.90
2023-02-09T22:54:19.921Z,99.90
2023-02-09T22:56:47.182Z,99.90
2023-02-09T22:59:14.643Z,99.90
2023-02-09T23:01:42.092Z,99.90
2023-02-09T23:04:11.714Z,99.90
2023-02-09T23:06:39.238Z,99.90
2023-02-09T23:09:07.529Z,99.90
2023-02-09T23:11:35.280Z,99.90
2023-02-09T23:14:10.731Z,99.90
2023-02-09T23:16:39.791Z,99.90
2023-02-09T23:19:07.929Z,99.90
2023-02-09T23:21:39.309Z,99.90
2023-02-09T23:24:06.683Z,99.90
2023-02-09T23:26:34.490Z,99.90
2023-02-09T23:29:03.582Z,99.90
2023-02-09T23:31:30.962Z,99.90
2023-02-09T23:34:02.641Z,99.90
2023-02-09T23:36:35.316Z,99.90
2023-02-09T23:39:05.816Z,99.90
2023-02-09T23:41:35.351Z,99.90
2023-02-09T23:44:02.827Z,99.90
2023-02-09T23:46:31.984Z,99.90
2023-02-09T23:48:58.973Z,99.90
2023-02-09T23:51:32.471Z,99.90
2023-02-09T23:54:02.091Z,99.90
2023-02-09T23:56:33.117Z,99.90
2023-02-09T23:59:00.020Z,99.90
